Time;durP1;ratioP1;P1;durP2;ratioP2;P2;SDS_P1;SDS_P2;PMS_P1;PMS_P2;Temp;Humidity;BMP_temperature;BMP_pressure;BME280_temperature;BME280_humidity;BME280_pressure;Samples;Min_cycle;Max_cycle;Signal;HPM_P1;HPM_P2
2023/03/30 00:01:02;;;;;;;;;;;16.60;63.60;;;;;;5022133;28;20043;-59
2023/03/30 00:03:27;;;;;;;;;;;16.60;63.70;;;;;;5032253;28;20290;-59
2023/03/30 00:05:56;;;;;;;;;;;16.60;63.80;;;;;;5045007;28;19909;-60
2023/03/30 00:08:27;;;;;;;;;;;16.60;63.80;;;;;;5043080;28;20299;-59
2023/03/30 00:10:59;;;;;;;;;;;16.60;64.00;;;;;;5023388;28;19920;-59
2023/03/30 00:13:25;;;;;;;;;;;16.70;64.10;;;;;;5030832;28;19924;-59
2023/03/30 00:15:51;;;;;;;;;;;16.80;64.00;;;;;;5041957;28;19924;-59
2023/03/30 00:18:16;;;;;;;;;;;16.80;63.90;;;;;;5032637;28;19921;-61
2023/03/30 00:20:41;;;;;;;;;;;16.80;63.90;;;;;;5032324;28;19939;-59
2023/03/30 00:23:07;;;;;;;;;;;16.80;63.80;;;;;;5032657;28;19909;-59
2023/03/30 00:25:33;;;;;;;;;;;16.80;63.70;;;;;;5032722;28;19967;-60
2023/03/30 00:27:58;;;;;;;;;;;16.80;63.60;;;;;;5035574;28;19945;-59
2023/03/30 00:30:23;;;;;;;;;;;16.80;63.70;;;;;;5043321;28;19917;-59
2023/03/30 00:32:49;;;;;;;;;;;16.80;63.60;;;;;;5046067;28;19913;-59
2023/03/30 00:35:15;;;;;;;;;;;16.80;63.70;;;;;;5038499;28;19999;-59
2023/03/30 00:37:44;;;;;;;;;;;16.80;63.70;;;;;;5020985;28;19968;-59
2023/03/30 00:40:14;;;;;;;;;;;16.90;63.80;;;;;;5012342;28;20274;-59
2023/03/30 00:42:39;;;;;;;;;;;16.90;63.70;;;;;;5023685;28;19921;-62
2023/03/30 00:45:31;;;;;;;;;;;16.90;63.80;;;;;;5019451;28;20361;-59
2023/03/30 00:48:02;;;;;;;;;;;16.80;63.70;;;;;;5024795;28;19983;-60
2023/03/30 00:50:33;;;;;;;;;;;16.80;63.50;;;;;;5031553;28;19924;-60
2023/03/30 00:53:01;;;;;;;;;;;16.80;63.40;;;;;;5012018;28;19914;-58
2023/03/30 00:55:28;;;;;;;;;;;16.80;63.40;;;;;;5017380;28;19971;-59
2023/03/30 00:57:53;;;;;;;;;;;16.80;63.30;;;;;;5023183;28;19920;-59
2023/03/30 01:00:19;;;;;;;;;;;16.80;63.30;;;;;;5012724;28;19933;-59
2023/03/30 01:02:49;;;;;;;;;;;16.70;63.20;;;;;;5022118;28;20268;-60
2023/03/30 01:05:15;;;;;;;;;;;16.70;63.30;;;;;;5033768;28;20309;-59
2023/03/30 01:07:42;;;;;;;;;;;16.70;63.30;;;;;;5014665;28;20015;-59
2023/03/30 01:10:08;;;;;;;;;;;16.70;63.30;;;;;;5015552;28;20321;-59
2023/03/30 01:12:34;;;;;;;;;;;16.70;63.50;;;;;;5012366;28;19917;-59
2023/03/30 01:14:59;;;;;;;;;;;16.70;63.30;;;;;;5016728;28;19961;-59
2023/03/30 01:17:31;;;;;;;;;;;16.70;63.20;;;;;;5011982;28;20444;-59
2023/03/30 01:20:15;;;;;;;;;;;16.70;63.30;;;;;;5022697;28;20020;-59
2023/03/30 01:22:43;;;;;;;;;;;16.70;63.30;;;;;;5029058;28;19995;-59
2023/03/30 01:25:09;;;;;;;;;;;16.70;63.40;;;;;;5031922;28;19917;-59
2023/03/30 01:27:49;;;;;;;;;;;16.80;63.60;;;;;;5031512;28;19916;-58
2023/03/30 01:30:18;;;;;;;;;;;16.80;63.30;;;;;;5029916;28;19917;-58
2023/03/30 01:32:57;;;;;;;;;;;16.90;63.40;;;;;;5028605;28;19914;-58
2023/03/30 01:35:35;;;;;;;;;;;17.00;63.20;;;;;;5033919;28;19917;-59
2023/03/30 01:38:14;;;;;;;;;;;17.00;63.10;;;;;;5030609;28;19921;-59
2023/03/30 01:40:46;;;;;;;;;;;17.00;63.10;;;;;;5027925;28;19925;-58
2023/03/30 01:43:16;;;;;;;;;;;17.00;63.20;;;;;;5030382;28;20418;-60
2023/03/30 01:45:43;;;;;;;;;;;17.00;63.30;;;;;;5030686;28;19917;-59
2023/03/30 01:48:08;;;;;;;;;;;17.10;63.30;;;;;;5026567;28;19917;-59
2023/03/30 01:50:39;;;;;;;;;;;17.20;63.20;;;;;;5016485;28;19967;-64
2023/03/30 01:53:09;;;;;;;;;;;17.30;63.20;;;;;;5020869;28;19913;-59
2023/03/30 01:55:41;;;;;;;;;;;17.30;63.10;;;;;;5015995;28;19913;-60
2023/03/30 01:58:12;;;;;;;;;;;17.50;62.90;;;;;;5024726;28;20292;-60
2023/03/30 02:00:39;;;;;;;;;;;17.50;62.90;;;;;;5034346;28;19967;-60
2023/03/30 02:03:05;;;;;;;;;;;17.50;62.80;;;;;;5029158;28;20003;-60
2023/03/30 02:05:31;;;;;;;;;;;17.60;62.50;;;;;;5032363;28;20432;-62
2023/03/30 02:08:03;;;;;;;;;;;17.60;62.40;;;;;;5015065;28;20310;-59
2023/03/30 02:10:30;;;;;;;;;;;17.60;62.30;;;;;;5030693;28;19913;-59
2023/03/30 02:12:57;;;;;;;;;;;17.70;62.50;;;;;;5032622;28;19945;-59
2023/03/30 02:15:25;;;;;;;;;;;17.60;62.30;;;;;;5024925;28;19971;-59
2023/03/30 02:17:50;;;;;;;;;;;17.70;62.40;;;;;;5034565;28;19935;-59
2023/03/30 02:20:16;;;;;;;;;;;17.60;62.30;;;;;;5023689;28;20008;-59
2023/03/30 02:22:42;;;;;;;;;;;17.70;62.10;;;;;;5018718;28;19937;-59
2023/03/30 02:25:09;;;;;;;;;;;17.80;62.10;;;;;;5032061;28;19975;-58
2023/03/30 02:27:36;;;;;;;;;;;17.80;61.90;;;;;;5040936;28;19938;-58
2023/03/30 02:30:03;;;;;;;;;;;17.80;61.70;;;;;;5032512;28;20371;-59
2023/03/30 02:32:32;;;;;;;;;;;17.80;61.50;;;;;;5033961;28;19917;-59
2023/03/30 02:35:00;;;;;;;;;;;17.90;61.70;;;;;;5037259;28;20265;-59
2023/03/30 02:37:26;;;;;;;;;;;18.00;61.40;;;;;;5023842;28;20059;-59
2023/03/30 02:40:11;;;;;;;;;;;18.00;61.40;;;;;;5022219;28;20015;-59
2023/03/30 02:43:09;;;;;;;;;;;18.10;61.40;;;;;;5034396;28;19909;-59
2023/03/30 02:45:50;;;;;;;;;;;18.10;61.20;;;;;;5011744;28;19971;-64
2023/03/30 02:48:20;;;;;;;;;;;18.20;61.50;;;;;;5034391;28;20349;-58
2023/03/30 02:50:52;;;;;;;;;;;18.20;61.60;;;;;;5034317;28;19913;-59
2023/03/30 02:53:17;;;;;;;;;;;18.20;61.20;;;;;;5034895;28;20348;-58
2023/03/30 02:55:52;;;;;;;;;;;18.30;61.30;;;;;;5034142;28;19945;-58
2023/03/30 02:58:41;;;;;;;;;;;18.30;61.00;;;;;;5033611;28;20356;-58
2023/03/30 03:01:13;;;;;;;;;;;18.30;60.80;;;;;;5028550;28;20352;-58
2023/03/30 03:03:43;;;;;;;;;;;18.30;60.40;;;;;;5034164;28;19917;-60
2023/03/30 03:06:08;;;;;;;;;;;18.40;60.30;;;;;;5034309;28;20368;-60
2023/03/30 03:08:36;;;;;;;;;;;18.30;60.30;;;;;;5033656;28;19962;-60
2023/03/30 03:11:01;;;;;;;;;;;18.40;60.00;;;;;;5034658;28;20019;-59
2023/03/30 03:13:27;;;;;;;;;;;18.40;59.80;;;;;;5033925;28;19995;-60
2023/03/30 03:15:55;;;;;;;;;;;18.40;59.70;;;;;;5039404;28;19908;-59
2023/03/30 03:18:20;;;;;;;;;;;18.40;59.70;;;;;;5053521;28;19917;-59
2023/03/30 03:20:46;;;;;;;;;;;18.50;59.60;;;;;;5043877;28;19921;-59
2023/03/30 03:23:11;;;;;;;;;;;18.50;59.60;;;;;;5032113;28;19913;-60
2023/03/30 03:25:37;;;;;;;;;;;18.40;58.80;;;;;;5032921;28;19921;-59
2023/03/30 03:28:02;;;;;;;;;;;18.50;58.30;;;;;;5031523;28;20408;-60
2023/03/30 03:30:28;;;;;;;;;;;18.50;58.50;;;;;;5032962;28;19925;-59
2023/03/30 03:32:53;;;;;;;;;;;18.60;58.80;;;;;;5032778;28;20405;-59
2023/03/30 03:35:19;;;;;;;;;;;18.70;58.30;;;;;;5039798;28;19944;-58
2023/03/30 03:37:44;;;;;;;;;;;18.70;58.50;;;;;;5033125;28;19968;-59
2023/03/30 03:40:10;;;;;;;;;;;18.80;58.50;;;;;;5022004;28;19925;-60
2023/03/30 03:42:35;;;;;;;;;;;18.90;58.50;;;;;;5027790;28;19917;-59
2023/03/30 03:45:01;;;;;;;;;;;18.90;58.80;;;;;;5031487;28;19925;-62
2023/03/30 03:47:26;;;;;;;;;;;19.00;58.20;;;;;;5033457;28;19917;-60
2023/03/30 03:49:52;;;;;;;;;;;18.90;58.20;;;;;;5033242;28;19917;-60
2023/03/30 03:52:18;;;;;;;;;;;18.90;57.90;;;;;;5041065;28;20262;-58
2023/03/30 03:54:43;;;;;;;;;;;18.90;58.40;;;;;;5031611;28;19924;-59
2023/03/30 03:57:08;;;;;;;;;;;18.80;57.20;;;;;;5023717;28;19913;-59
2023/03/30 03:59:34;;;;;;;;;;;18.80;57.80;;;;;;5026412;28;19921;-59
2023/03/30 04:01:59;;;;;;;;;;;18.70;57.80;;;;;;5030038;28;19917;-60
2023/03/30 04:04:25;;;;;;;;;;;18.70;58.20;;;;;;5017935;28;19924;-59
2023/03/30 04:06:51;;;;;;;;;;;18.60;58.20;;;;;;5046670;28;20446;-59
2023/03/30 04:09:18;;;;;;;;;;;18.50;58.10;;;;;;5030335;28;19928;-59
2023/03/30 04:11:43;;;;;;;;;;;18.40;57.80;;;;;;5019774;28;21123;-59
2023/03/30 04:14:09;;;;;;;;;;;18.30;57.60;;;;;;5029981;28;20020;-62
2023/03/30 04:16:34;;;;;;;;;;;18.30;57.60;;;;;;5043853;28;19912;-61
2023/03/30 04:18:59;;;;;;;;;;;18.30;57.10;;;;;;5047670;28;19922;-59
2023/03/30 04:21:28;;;;;;;;;;;18.30;57.80;;;;;;5032727;28;19910;-59
2023/03/30 04:23:54;;;;;;;;;;;18.30;57.40;;;;;;5032877;28;19917;-63
2023/03/30 04:26:19;;;;;;;;;;;18.30;56.50;;;;;;5030818;28;19921;-61
2023/03/30 04:28:45;;;;;;;;;;;18.30;57.60;;;;;;5016802;28;20012;-59
2023/03/30 04:31:11;;;;;;;;;;;18.30;57.70;;;;;;5020825;28;19917;-58
2023/03/30 04:33:43;;;;;;;;;;;18.30;58.00;;;;;;5024866;28;19928;-58
2023/03/30 04:36:10;;;;;;;;;;;18.30;58.30;;;;;;5032174;28;19917;-60
2023/03/30 04:38:35;;;;;;;;;;;18.20;58.30;;;;;;5032424;28;20404;-59
2023/03/30 04:41:00;;;;;;;;;;;18.10;58.30;;;;;;5025260;28;19973;-66
2023/03/30 04:43:26;;;;;;;;;;;18.00;57.70;;;;;;5014263;28;20008;-59
2023/03/30 04:45:52;;;;;;;;;;;18.00;58.40;;;;;;5028494;28;19921;-59
2023/03/30 04:48:18;;;;;;;;;;;17.90;58.10;;;;;;5032643;28;19917;-59
2023/03/30 04:50:45;;;;;;;;;;;17.80;57.50;;;;;;5046532;28;19928;-58
2023/03/30 04:53:10;;;;;;;;;;;17.80;57.90;;;;;;5032498;28;20000;-59
2023/03/30 04:55:36;;;;;;;;;;;17.80;57.60;;;;;;5027719;28;20032;-59
2023/03/30 04:58:02;;;;;;;;;;;17.80;57.80;;;;;;5022344;28;20368;-59
2023/03/30 05:00:27;;;;;;;;;;;17.80;57.50;;;;;;5024954;28;19924;-59
2023/03/30 05:02:53;;;;;;;;;;;17.80;57.90;;;;;;5048298;28;19909;-59
2023/03/30 05:05:18;;;;;;;;;;;17.80;57.60;;;;;;5037557;28;20004;-59
2023/03/30 05:07:45;;;;;;;;;;;17.80;57.40;;;;;;5029178;28;19967;-59
2023/03/30 05:10:10;;;;;;;;;;;17.90;57.50;;;;;;5032425;28;19963;-60
2023/03/30 05:12:36;;;;;;;;;;;17.90;57.10;;;;;;5031887;28;19913;-59
2023/03/30 05:15:01;;;;;;;;;;;18.10;57.70;;;;;;5032366;28;19948;-59
2023/03/30 05:17:27;;;;;;;;;;;18.20;57.90;;;;;;5031884;28;19925;-61
2023/03/30 05:19:53;;;;;;;;;;;18.30;57.80;;;;;;5032215;28;19921;-58
2023/03/30 05:22:18;;;;;;;;;;;18.30;57.50;;;;;;5032135;28;19910;-58
2023/03/30 05:24:44;;;;;;;;;;;18.40;58.00;;;;;;5031880;28;20368;-58
2023/03/30 05:27:10;;;;;;;;;;;18.40;58.20;;;;;;5031924;28;20331;-58
2023/03/30 05:29:35;;;;;;;;;;;18.50;58.00;;;;;;5031961;28;19922;-58
2023/03/30 05:32:01;;;;;;;;;;;18.50;58.10;;;;;;5031370;28;19918;-59
2023/03/30 05:34:26;;;;;;;;;;;18.60;58.10;;;;;;5032200;28;19921;-58
2023/03/30 05:36:52;;;;;;;;;;;18.70;58.00;;;;;;5051761;28;19931;-59
2023/03/30 05:39:18;;;;;;;;;;;18.70;57.80;;;;;;5036364;28;20030;-58
2023/03/30 05:41:45;;;;;;;;;;;18.70;57.00;;;;;;5029875;28;20277;-58
2023/03/30 05:44:11;;;;;;;;;;;18.80;57.40;;;;;;5030483;28;19939;-58
2023/03/30 05:46:36;;;;;;;;;;;18.90;57.40;;;;;;5031826;28;19919;-58
2023/03/30 05:49:02;;;;;;;;;;;19.00;57.00;;;;;;5031441;28;19913;-58
2023/03/30 05:51:27;;;;;;;;;;;19.10;57.00;;;;;;5031697;28;19979;-59
2023/03/30 05:53:53;;;;;;;;;;;19.20;56.90;;;;;;5032011;28;19936;-59
2023/03/30 05:56:19;;;;;;;;;;;19.20;56.70;;;;;;5031389;28;20369;-58
2023/03/30 05:58:45;;;;;;;;;;;19.30;56.60;;;;;;5020052;28;20396;-59
2023/03/30 06:01:12;;;;;;;;;;;19.30;56.20;;;;;;5027464;28;20020;-58
2023/03/30 06:03:37;;;;;;;;;;;19.40;56.00;;;;;;5031481;28;19913;-58
2023/03/30 06:06:04;;;;;;;;;;;19.50;55.10;;;;;;5031551;28;19913;-59
2023/03/30 06:08:29;;;;;;;;;;;19.60;55.20;;;;;;5031767;28;19920;-59
2023/03/30 06:10:55;;;;;;;;;;;19.60;55.10;;;;;;5031690;28;19913;-58
2023/03/30 06:13:21;;;;;;;;;;;19.70;55.10;;;;;;5031176;28;19913;-58
2023/03/30 06:15:46;;;;;;;;;;;19.80;54.40;;;;;;5031221;28;19995;-59
2023/03/30 06:18:12;;;;;;;;;;;19.80;54.50;;;;;;5031420;28;19909;-60
2023/03/30 06:20:37;;;;;;;;;;;19.90;53.90;;;;;;5030938;28;19917;-60
2023/03/30 06:23:03;;;;;;;;;;;20.00;53.80;;;;;;5031517;28;19909;-59
2023/03/30 06:25:29;;;;;;;;;;;20.00;53.30;;;;;;5031463;28;19918;-62
2023/03/30 06:27:54;;;;;;;;;;;20.10;52.60;;;;;;5031413;28;20357;-59
2023/03/30 06:30:20;;;;;;;;;;;20.10;52.90;;;;;;5031730;28;19917;-59
2023/03/30 06:32:45;;;;;;;;;;;20.20;52.40;;;;;;5030944;28;19967;-59
2023/03/30 06:35:12;;;;;;;;;;;20.20;51.90;;;;;;5037857;28;19917;-59
2023/03/30 06:37:38;;;;;;;;;;;20.20;52.10;;;;;;5051020;28;19917;-60
2023/03/30 06:40:12;;;;;;;;;;;20.20;51.30;;;;;;5050543;28;20008;-59
2023/03/30 06:42:39;;;;;;;;;;;20.20;51.20;;;;;;5051901;28;19917;-59
2023/03/30 06:45:05;;;;;;;;;;;20.10;51.40;;;;;;5053422;28;19962;-59
2023/03/30 06:47:30;;;;;;;;;;;20.20;51.20;;;;;;5054743;28;19913;-59
2023/03/30 06:49:56;;;;;;;;;;;20.10;50.40;;;;;;5037316;28;19941;-61
2023/03/30 06:52:21;;;;;;;;;;;20.20;50.90;;;;;;5034342;28;19913;-59
2023/03/30 06:54:46;;;;;;;;;;;20.20;50.80;;;;;;5045058;28;19913;-59
2023/03/30 06:57:12;;;;;;;;;;;20.30;51.00;;;;;;5038422;28;19921;-59
2023/03/30 06:59:37;;;;;;;;;;;20.40;51.10;;;;;;5015478;28;19917;-59
2023/03/30 07:02:03;;;;;;;;;;;20.50;51.00;;;;;;5018533;28;20300;-59
2023/03/30 07:04:28;;;;;;;;;;;20.60;50.70;;;;;;5036180;28;19984;-59
2023/03/30 07:06:56;;;;;;;;;;;20.70;51.00;;;;;;5015856;28;20004;-59
2023/03/30 07:09:25;;;;;;;;;;;20.90;50.90;;;;;;5016257;28;20007;-59
2023/03/30 07:11:50;;;;;;;;;;;21.00;51.20;;;;;;5030452;28;19971;-59
2023/03/30 07:14:16;;;;;;;;;;;21.20;51.10;;;;;;5031846;28;19921;-59
2023/03/30 07:16:41;;;;;;;;;;;21.30;50.60;;;;;;5034091;28;19953;-59
2023/03/30 07:19:07;;;;;;;;;;;21.40;50.30;;;;;;5028411;28;19971;-59
2023/03/30 07:21:32;;;;;;;;;;;21.60;50.60;;;;;;5026923;28;19916;-59
2023/03/30 07:24:00;;;;;;;;;;;21.70;50.60;;;;;;5032196;28;19913;-59
2023/03/30 07:26:26;;;;;;;;;;;21.80;50.90;;;;;;5026352;28;19916;-59
2023/03/30 07:28:52;;;;;;;;;;;22.00;50.80;;;;;;5026732;28;19923;-58
2023/03/30 07:31:18;;;;;;;;;;;22.00;50.30;;;;;;5033775;28;20000;-59
2023/03/30 07:33:44;;;;;;;;;;;22.10;49.70;;;;;;5016052;28;19914;-59
2023/03/30 07:36:09;;;;;;;;;;;22.20;49.10;;;;;;5028050;28;19972;-58
2023/03/30 07:38:35;;;;;;;;;;;22.20;49.00;;;;;;5022806;28;19940;-59
2023/03/30 07:41:05;;;;;;;;;;;22.30;48.60;;;;;;5013775;28;20482;-58
2023/03/30 07:43:30;;;;;;;;;;;22.40;47.30;;;;;;5017255;28;19913;-59
2023/03/30 07:45:56;;;;;;;;;;;22.80;49.50;;;;;;5025543;28;20336;-59
2023/03/30 07:48:21;;;;;;;;;;;23.20;48.10;;;;;;5028896;28;19920;-58
2023/03/30 07:50:46;;;;;;;;;;;23.80;47.80;;;;;;5022563;28;20452;-63
2023/03/30 07:53:12;;;;;;;;;;;24.60;48.20;;;;;;5018846;28;19920;-58
2023/03/30 07:55:38;;;;;;;;;;;25.20;46.70;;;;;;5020710;28;19917;-59
2023/03/30 07:58:03;;;;;;;;;;;25.50;45.50;;;;;;5018577;28;19914;-59
2023/03/30 08:00:29;;;;;;;;;;;25.70;44.10;;;;;;5013846;28;19921;-59
2023/03/30 08:02:55;;;;;;;;;;;26.00;43.00;;;;;;5012705;28;19910;-59
2023/03/30 08:05:21;;;;;;;;;;;26.50;44.10;;;;;;5015973;28;20613;-60
2023/03/30 08:07:46;;;;;;;;;;;27.00;40.80;;;;;;5032720;28;19920;-59
2023/03/30 08:10:12;;;;;;;;;;;27.30;39.60;;;;;;5031600;28;19936;-59
2023/03/30 08:12:37;;;;;;;;;;;27.40;37.30;;;;;;5013147;28;20361;-61
2023/03/30 08:15:03;;;;;;;;;;;27.20;36.10;;;;;;5012941;28;19909;-59
2023/03/30 08:17:29;;;;;;;;;;;27.20;36.60;;;;;;5013119;28;19917;-59
2023/03/30 08:19:55;;;;;;;;;;;27.20;35.60;;;;;;5023972;28;20349;-58
2023/03/30 08:22:21;;;;;;;;;;;27.30;36.30;;;;;;5014115;28;19921;-58
2023/03/30 08:24:46;;;;;;;;;;;27.50;34.50;;;;;;5021973;28;20353;-58
2023/03/30 08:27:12;;;;;;;;;;;27.40;34.40;;;;;;5028663;28;19918;-59
2023/03/30 08:29:37;;;;;;;;;;;27.30;34.50;;;;;;5013421;28;20320;-59
2023/03/30 08:32:02;;;;;;;;;;;27.30;34.30;;;;;;5030034;28;19967;-59
2023/03/30 08:34:28;;;;;;;;;;;27.10;35.00;;;;;;5030689;28;19971;-59
2023/03/30 08:36:54;;;;;;;;;;;26.90;35.10;;;;;;5023692;28;20012;-59
2023/03/30 08:39:20;;;;;;;;;;;26.70;35.50;;;;;;5046381;28;19916;-59
2023/03/30 08:41:52;;;;;;;;;;;26.40;35.20;;;;;;5049777;28;20314;-60
2023/03/30 08:44:19;;;;;;;;;;;26.10;35.30;;;;;;5031518;28;19920;-59
2023/03/30 08:46:47;;;;;;;;;;;25.90;35.40;;;;;;5041763;28;20050;-60
2023/03/30 08:49:14;;;;;;;;;;;25.70;35.90;;;;;;5027161;28;20377;-59
2023/03/30 08:51:41;;;;;;;;;;;25.60;36.20;;;;;;5015771;28;20004;-59
2023/03/30 08:54:13;;;;;;;;;;;25.60;36.70;;;;;;5026779;28;20479;-60
2023/03/30 08:56:41;;;;;;;;;;;25.50;37.20;;;;;;5026078;28;19921;-59
2023/03/30 08:59:07;;;;;;;;;;;25.30;38.30;;;;;;5027735;28;20007;-59
2023/03/30 09:01:48;;;;;;;;;;;25.00;39.50;;;;;;5018577;28;20008;-59
2023/03/30 09:04:32;;;;;;;;;;;24.70;40.10;;;;;;5012404;28;20055;-59
2023/03/30 09:07:02;;;;;;;;;;;24.50;40.70;;;;;;5026328;28;19928;-59
2023/03/30 09:09:30;;;;;;;;;;;24.50;41.70;;;;;;5028930;28;20368;-59
2023/03/30 09:11:58;;;;;;;;;;;24.50;42.60;;;;;;5025302;28;20385;-60
2023/03/30 09:14:31;;;;;;;;;;;24.30;41.70;;;;;;5016697;28;19913;-60
2023/03/30 09:16:59;;;;;;;;;;;24.30;41.80;;;;;;5023102;28;20237;-60
2023/03/30 09:19:29;;;;;;;;;;;24.30;42.30;;;;;;5030894;28;19928;-59
2023/03/30 09:21:56;;;;;;;;;;;24.50;41.60;;;;;;5023132;28;19960;-59
2023/03/30 09:24:23;;;;;;;;;;;24.10;47.70;;;;;;5030943;28;19921;-58
2023/03/30 09:26:53;;;;;;;;;;;23.50;52.80;;;;;;5029042;28;19964;-59
2023/03/30 09:29:27;;;;;;;;;;;23.10;56.40;;;;;;5030992;28;19917;-58
2023/03/30 09:31:52;;;;;;;;;;;22.80;56.70;;;;;;5027056;28;20364;-59
2023/03/30 09:34:26;;;;;;;;;;;22.30;58.00;;;;;;5031180;28;19919;-58
2023/03/30 09:37:10;;;;;;;;;;;21.80;58.00;;;;;;5029867;28;19928;-60
2023/03/30 09:39:36;;;;;;;;;;;21.20;58.20;;;;;;5025174;28;19917;-59
2023/03/30 09:42:02;;;;;;;;;;;20.60;58.30;;;;;;5029883;28;19976;-59
2023/03/30 09:44:27;;;;;;;;;;;20.20;59.00;;;;;;5030299;28;20349;-59
2023/03/30 09:46:55;;;;;;;;;;;19.80;59.60;;;;;;5027933;28;19917;-58
2023/03/30 09:49:25;;;;;;;;;;;19.50;60.10;;;;;;5029559;28;19917;-58
2023/03/30 09:51:52;;;;;;;;;;;19.20;60.80;;;;;;5029993;28;19917;-59
2023/03/30 09:54:18;;;;;;;;;;;19.10;61.60;;;;;;5030843;28;19995;-58
2023/03/30 09:56:45;;;;;;;;;;;18.90;62.20;;;;;;5029650;28;19917;-59
2023/03/30 09:59:21;;;;;;;;;;;18.90;62.50;;;;;;5028886;28;19917;-59
2023/03/30 10:01:46;;;;;;;;;;;18.90;62.90;;;;;;5028554;28;20069;-58
2023/03/30 10:04:12;;;;;;;;;;;19.00;63.70;;;;;;5029586;28;20532;-59
2023/03/30 10:06:43;;;;;;;;;;;19.30;64.10;;;;;;5029548;28;19913;-60
2023/03/30 10:09:10;;;;;;;;;;;19.60;64.10;;;;;;5030665;28;20012;-59
2023/03/30 10:11:38;;;;;;;;;;;19.80;64.00;;;;;;5025190;28;19913;-59
2023/03/30 10:14:06;;;;;;;;;;;20.30;65.00;;;;;;5029567;28;20324;-59
2023/03/30 10:16:32;;;;;;;;;;;20.70;64.30;;;;;;5025969;28;19921;-59
2023/03/30 10:19:08;;;;;;;;;;;21.00;64.00;;;;;;5032135;28;19921;-59
2023/03/30 10:21:38;;;;;;;;;;;21.50;65.30;;;;;;5031589;28;19925;-59
2023/03/30 10:24:08;;;;;;;;;;;22.30;65.30;;;;;;5032120;28;19924;-59
2023/03/30 10:26:35;;;;;;;;;;;23.00;64.70;;;;;;5029983;28;20315;-59
2023/03/30 10:29:03;;;;;;;;;;;23.70;63.10;;;;;;5033982;28;19917;-59
2023/03/30 10:31:30;;;;;;;;;;;24.20;62.80;;;;;;5034795;28;19960;-60
2023/03/30 10:33:56;;;;;;;;;;;24.80;62.30;;;;;;5033518;28;20272;-61
2023/03/30 10:36:26;;;;;;;;;;;25.30;62.20;;;;;;5050777;28;20005;-61
2023/03/30 10:38:52;;;;;;;;;;;25.80;60.30;;;;;;5044721;28;19975;-61
2023/03/30 10:41:22;;;;;;;;;;;26.20;59.10;;;;;;5039156;28;19917;-61
2023/03/30 10:43:48;;;;;;;;;;;26.70;60.30;;;;;;5039489;28;19967;-59
2023/03/30 10:46:18;;;;;;;;;;;27.10;60.50;;;;;;5013415;28;19914;-59
2023/03/30 10:49:02;;;;;;;;;;;27.70;60.20;;;;;;5014173;28;19914;-59
2023/03/30 10:51:34;;;;;;;;;;;28.10;59.00;;;;;;5014676;28;20292;-59
2023/03/30 10:54:23;;;;;;;;;;;28.60;59.80;;;;;;5022738;28;19920;-59
2023/03/30 10:56:59;;;;;;;;;;;29.00;58.40;;;;;;5033847;28;19917;-59
2023/03/30 10:59:50;;;;;;;;;;;29.20;57.70;;;;;;5040371;28;20407;-59
2023/03/30 11:02:21;;;;;;;;;;;29.30;56.40;;;;;;5028348;28;19917;-59
2023/03/30 11:04:48;;;;;;;;;;;29.20;55.30;;;;;;5034576;28;19913;-59
2023/03/30 11:07:23;;;;;;;;;;;28.90;56.20;;;;;;5032671;28;19917;-60
2023/03/30 11:09:52;;;;;;;;;;;28.80;54.40;;;;;;5034278;28;20369;-59
2023/03/30 11:12:21;;;;;;;;;;;28.50;54.20;;;;;;5019062;28;19980;-58
2023/03/30 11:15:01;;;;;;;;;;;28.20;54.10;;;;;;5014394;28;19914;-59
2023/03/30 11:17:30;;;;;;;;;;;27.80;53.10;;;;;;5030107;28;19940;-59
2023/03/30 11:19:56;;;;;;;;;;;27.10;52.50;;;;;;5031299;28;19932;-58
2023/03/30 11:22:26;;;;;;;;;;;26.70;53.10;;;;;;5033665;28;20360;-59
2023/03/30 11:24:55;;;;;;;;;;;26.20;52.80;;;;;;5032715;28;20258;-59
2023/03/30 11:27:26;;;;;;;;;;;25.90;53.00;;;;;;5033818;28;20357;-59
2023/03/30 11:30:01;;;;;;;;;;;25.80;53.40;;;;;;5031869;28;19917;-60
2023/03/30 11:32:29;;;;;;;;;;;26.00;53.20;;;;;;5033999;28;19913;-59
2023/03/30 11:34:55;;;;;;;;;;;26.70;54.30;;;;;;5037053;28;20366;-59
2023/03/30 11:37:26;;;;;;;;;;;26.80;51.10;;;;;;5053640;28;19917;-59
2023/03/30 11:39:58;;;;;;;;;;;26.70;49.50;;;;;;5046861;28;19921;-59
2023/03/30 11:42:25;;;;;;;;;;;26.50;48.00;;;;;;5033498;28;20254;-59
2023/03/30 11:44:51;;;;;;;;;;;26.20;48.30;;;;;;5033240;28;19917;-59
2023/03/30 11:47:29;;;;;;;;;;;25.90;48.70;;;;;;5033318;28;19924;-59
2023/03/30 11:50:04;;;;;;;;;;;25.80;48.70;;;;;;5031686;28;19936;-59
2023/03/30 11:52:35;;;;;;;;;;;25.80;48.40;;;;;;5033516;28;19924;-60
2023/03/30 11:55:23;;;;;;;;;;;25.70;48.60;;;;;;5032517;28;19944;-60
2023/03/30 11:57:49;;;;;;;;;;;25.50;46.90;;;;;;5025349;28;20293;-58
2023/03/30 12:00:17;;;;;;;;;;;25.40;47.20;;;;;;5032305;28;19917;-61
2023/03/30 12:02:48;;;;;;;;;;;25.30;47.60;;;;;;5033267;28;20485;-58
2023/03/30 12:05:32;;;;;;;;;;;25.20;47.80;;;;;;5032739;28;20008;-60
2023/03/30 12:07:57;;;;;;;;;;;25.10;47.60;;;;;;5031671;28;20424;-59
2023/03/30 12:10:30;;;;;;;;;;;24.90;45.70;;;;;;5033003;28;20007;-60
2023/03/30 12:12:55;;;;;;;;;;;24.80;46.20;;;;;;5031218;28;19916;-58
2023/03/30 12:15:25;;;;;;;;;;;24.80;46.70;;;;;;5033571;28;19917;-59
2023/03/30 12:18:01;;;;;;;;;;;24.80;46.70;;;;;;5031077;28;19917;-59
2023/03/30 12:20:29;;;;;;;;;;;25.20;47.00;;;;;;5029498;28;19921;-58
2023/03/30 12:22:57;;;;;;;;;;;26.00;48.00;;;;;;5031413;28;19913;-58
2023/03/30 12:25:41;;;;;;;;;;;27.10;46.30;;;;;;5033212;28;19917;-64
2023/03/30 12:28:14;;;;;;;;;;;27.80;43.70;;;;;;5031566;28;20004;-60
2023/03/30 12:30:42;;;;;;;;;;;28.60;42.70;;;;;;5032596;28;19921;-59
2023/03/30 12:33:12;;;;;;;;;;;29.40;40.80;;;;;;5030375;28;19920;-57
2023/03/30 12:35:46;;;;;;;;;;;30.00;40.60;;;;;;5041830;28;20003;-59
2023/03/30 12:38:16;;;;;;;;;;;30.20;40.30;;;;;;5052017;28;20295;-59
2023/03/30 12:40:47;;;;;;;;;;;30.00;38.10;;;;;;5036895;28;20297;-59
2023/03/30 12:43:18;;;;;;;;;;;29.80;36.50;;;;;;5032453;28;19909;-58
2023/03/30 12:45:50;;;;;;;;;;;29.30;34.20;;;;;;5031227;28;19924;-60
2023/03/30 12:48:28;;;;;;;;;;;29.20;36.30;;;;;;5032315;28;19913;-58
2023/03/30 12:51:12;;;;;;;;;;;29.20;35.50;;;;;;5031142;28;20380;-59
2023/03/30 12:54:03;;;;;;;;;;;29.50;34.90;;;;;;5032220;28;20364;-59
2023/03/30 12:56:45;;;;;;;;;;;29.30;34.00;;;;;;5032559;28;19956;-59
2023/03/30 12:59:29;;;;;;;;;;;29.40;33.90;;;;;;5023994;28;19976;-59
2023/03/30 13:02:14;;;;;;;;;;;29.00;34.30;;;;;;5032082;28;20007;-61
2023/03/30 13:04:41;;;;;;;;;;;28.50;35.70;;;;;;5031306;28;19920;-59
2023/03/30 13:07:12;;;;;;;;;;;27.70;39.40;;;;;;5031966;28;20383;-61
2023/03/30 13:09:58;;;;;;;;;;;26.40;42.90;;;;;;5027553;28;19913;-59
2023/03/30 13:12:26;;;;;;;;;;;25.30;45.90;;;;;;5030621;28;20351;-59
2023/03/30 13:15:00;;;;;;;;;;;24.80;49.40;;;;;;5032208;28;19967;-62
2023/03/30 13:17:26;;;;;;;;;;;25.00;51.20;;;;;;5030588;28;20019;-62
2023/03/30 13:20:09;;;;;;;;;;;25.40;52.10;;;;;;5033575;28;20011;-59
2023/03/30 13:22:35;;;;;;;;;;;25.70;53.30;;;;;;5011952;28;20337;-61
2023/03/30 13:25:24;;;;;;;;;;;26.10;53.00;;;;;;5012750;28;20012;-58
2023/03/30 13:27:51;;;;;;;;;;;26.30;51.90;;;;;;5020866;28;19917;-60
2023/03/30 13:30:17;;;;;;;;;;;26.20;50.60;;;;;;5031078;28;20250;-60
2023/03/30 13:33:00;;;;;;;;;;;26.00;50.90;;;;;;5031672;28;19913;-59
2023/03/30 13:35:47;;;;;;;;;;;25.90;50.40;;;;;;5040122;28;19931;-62
2023/03/30 13:38:27;;;;;;;;;;;25.80;46.80;;;;;;5011783;28;20285;-58
2023/03/30 13:41:31;;;;;;;;;;;25.30;48.00;;;;;;5014576;28;19968;-59
2023/03/30 13:44:15;;;;;;;;;;;25.00;47.70;;;;;;5008777;28;19925;-61
2023/03/30 13:46:49;;;;;;;;;;;24.70;47.30;;;;;;5009636;28;19922;-60
2023/03/30 13:49:33;;;;;;;;;;;24.70;48.40;;;;;;5015064;28;20051;-60
2023/03/30 13:52:04;;;;;;;;;;;24.60;47.50;;;;;;5010544;28;19969;-60
2023/03/30 13:54:32;;;;;;;;;;;24.40;47.50;;;;;;5031876;28;19957;-60
2023/03/30 13:57:07;;;;;;;;;;;24.30;47.70;;;;;;5030081;28;19963;-60
2023/03/30 13:59:34;;;;;;;;;;;24.30;48.50;;;;;;5011474;28;19920;-59
2023/03/30 14:02:00;;;;;;;;;;;24.30;49.30;;;;;;5011628;28;19913;-60
2023/03/30 14:04:30;;;;;;;;;;;24.40;48.30;;;;;;5011837;28;20394;-60
2023/03/30 14:06:57;;;;;;;;;;;24.30;48.40;;;;;;5011704;28;19913;-60
2023/03/30 14:09:24;;;;;;;;;;;24.30;47.80;;;;;;5012346;28;19913;-60
2023/03/30 14:11:51;;;;;;;;;;;24.10;47.00;;;;;;5011509;28;19913;-58
2023/03/30 14:14:21;;;;;;;;;;;23.90;48.30;;;;;;5027319;28;19917;-61
2023/03/30 14:16:47;;;;;;;;;;;23.80;48.40;;;;;;5031271;28;19913;-60
2023/03/30 14:19:16;;;;;;;;;;;23.70;49.70;;;;;;5030171;28;19913;-60
2023/03/30 14:21:43;;;;;;;;;;;23.50;49.60;;;;;;5031595;28;19948;-59
2023/03/30 14:24:11;;;;;;;;;;;23.50;50.10;;;;;;5030212;28;20004;-59
2023/03/30 14:26:38;;;;;;;;;;;23.50;50.00;;;;;;5026158;28;19921;-60